Time;durP1;ratioP1;P1;durP2;ratioP2;P2;SDS_P1;SDS_P2;PMS_P1;PMS_P2;Temp;Humidity;BMP_temperature;BMP_pressure;BME280_temperature;BME280_humidity;BME280_pressure;Samples;Min_cycle;Max_cycle;Signal;HPM_P1;HPM_P2
2022/01/23 00:01:10;;;;;;;62.93;22.57;;;;;;;-1.19;95.88;101985.97;5190780;56;970234;-76
2022/01/23 00:06:15;;;;;;;42.73;15.30;;;;;;;-1.20;96.08;101986.83;5190844;56;1138996;-75
2022/01/23 00:11:25;;;;;;;40.25;13.38;;;;;;;-1.20;96.42;101975.16;5190817;57;1141036;-70
2022/01/23 00:21:57;;;;;;;52.37;19.77;;;;;;;-1.07;97.60;101993.67;5167129;56;1141324;-72
2022/01/23 00:32:22;;;;;;;64.05;25.12;;;;;;;-0.83;98.18;101984.02;5165037;56;1141352;-74
2022/01/23 00:37:28;;;;;;;46.47;18.40;;;;;;;-0.82;97.82;101990.93;5164774;56;1141096;-74
2022/01/23 00:42:35;;;;;;;34.13;12.97;;;;;;;-0.91;97.75;101998.33;5094051;57;1141218;-72
2022/01/23 00:47:40;;;;;;;31.80;11.90;;;;;;;-0.95;98.10;102005.74;5089589;57;1141134;-76
2022/01/23 00:52:46;;;;;;;32.90;12.50;;;;;;;-0.98;98.50;102002.30;5131709;57;1141180;-76
2022/01/23 00:57:52;;;;;;;29.03;11.20;;;;;;;-1.05;98.92;101974.20;5121198;57;1141112;-80
2022/01/23 01:02:58;;;;;;;24.27;10.20;;;;;;;-1.08;99.17;101967.31;5115925;56;1141119;-79
2022/01/23 01:08:06;;;;;;;25.37;9.53;;;;;;;-1.10;99.44;101964.30;5080838;57;1141115;-77
2022/01/23 01:13:14;;;;;;;25.57;9.80;;;;;;;-1.11;99.75;101976.41;5080874;57;1139070;-75
2022/01/23 01:34:43;;;;;;;39.95;15.40;;;;;;;-1.07;100.00;102006.66;5141320;56;1143239;-76
2022/01/23 01:39:41;;;;;;;34.53;12.80;;;;;;;-1.04;100.00;102003.62;5147688;57;1143218;-79
2022/01/23 01:44:47;;;;;;;39.90;15.97;;;;;;;-1.03;100.00;101997.12;5141649;57;1143163;-76
2022/01/23 01:50:02;;;;;;;26.43;10.83;;;;;;;-1.03;100.00;101997.12;5138486;56;1141378;-76
2022/01/23 01:55:11;;;;;;;25.03;8.83;;;;;;;-1.01;100.00;101994.08;5136289;57;1141048;-79
2022/01/23 02:11:19;;;;;;;25.27;8.83;;;;;;;-0.97;100.00;101989.73;5167971;57;1139138;-77
2022/01/23 02:59:30;;;;;;;25.13;9.50;;;;;;;-0.93;100.00;101969.37;5108812;58;976365;-71
2022/01/23 03:04:39;;;;;;;20.27;9.70;;;;;;;-0.95;100.00;101969.39;5105470;57;1139064;-75
2022/01/23 03:09:57;;;;;;;28.33;9.83;;;;;;;-0.93;100.00;101966.34;5105618;57;1141408;-71
2022/01/23 03:15:08;;;;;;;26.83;11.10;;;;;;;-0.91;100.00;101968.47;5105926;57;1141174;-73
2022/01/23 03:30:54;;;;;;;24.00;10.47;;;;;;;-0.69;100.00;101967.88;5070305;57;1141208;-76
2022/01/23 03:35:57;;;;;;;30.60;10.80;;;;;;;-0.59;100.00;101956.96;5070025;57;1141291;-75
2022/01/23 03:41:04;;;;;;;23.93;10.70;;;;;;;-0.61;100.00;101962.64;5069772;57;1141151;-71
2022/01/23 03:46:33;;;;;;;30.20;11.17;;;;;;;-0.62;100.00;101978.66;5081063;57;1141226;-77
2022/01/23 03:51:29;;;;;;;31.30;13.00;;;;;;;-0.64;100.00;101978.24;5082043;57;1141142;-77
2022/01/23 03:56:35;;;;;;;26.13;11.00;;;;;;;-0.65;100.00;101994.70;5162043;56;1141170;-81
2022/01/23 04:01:40;;;;;;;31.35;12.53;;;;;;;-0.65;100.00;102002.50;5165005;56;1140975;-75
2022/01/23 04:06:46;;;;;;;29.37;12.30;;;;;;;-0.63;100.00;102008.55;5164787;56;1141131;-78
2022/01/23 04:11:52;;;;;;;28.77;10.43;;;;;;;-0.63;100.00;102016.34;5165133;56;1139090;-76
2022/01/23 04:17:42;;;;;;;28.47;10.87;;;;;;;-0.62;100.00;102018.07;5163725;56;1139157;-75
2022/01/23 04:59:48;;;;;;;29.83;11.77;;;;;;;-0.50;100.00;102007.14;5105792;58;1143224;-75
2022/01/23 05:04:50;;;;;;;24.63;11.07;;;;;;;-0.43;100.00;102026.98;5106461;56;1143282;-81
2022/01/23 05:09:59;;;;;;;30.83;11.43;;;;;;;-0.45;100.00;102032.63;5102331;58;1143257;-71
2022/01/23 05:15:12;;;;;;;18.63;8.47;;;;;;;-0.47;100.00;102030.94;5106442;57;1143190;-74
2022/01/23 05:20:20;;;;;;;21.93;10.47;;;;;;;-0.50;100.00;102029.66;5098551;58;1141244;-76
2022/01/23 05:25:29;;;;;;;25.90;11.77;;;;;;;-0.55;100.00;102040.52;5106011;57;1143530;-77
2022/01/23 05:30:35;;;;;;;33.03;13.07;;;;;;;-0.57;100.00;102044.86;5106624;56;1143275;-70
2022/01/23 05:35:41;;;;;;;24.77;10.33;;;;;;;-0.53;100.00;102055.66;5105922;58;1141293;-76
2022/01/23 05:40:55;;;;;;;27.90;10.70;;;;;;;-0.44;100.00;102047.78;5106496;58;1140705;-73
2022/01/23 05:45:54;;;;;;;35.60;15.50;;;;;;;-0.35;100.00;102046.43;5106559;57;1141115;-78
2022/01/23 05:51:10;;;;;;;59.23;20.20;;;;;;;-0.26;100.00;102045.48;5095728;57;1141098;-78
2022/01/23 05:56:17;;;;;;;59.53;22.37;;;;;;;-0.27;100.00;102045.05;5166941;57;1141239;-76
2022/01/23 06:01:37;;;;;;;62.53;21.00;;;;;;;-0.20;100.00;102066.23;5191290;56;1140980;-75
2022/01/23 06:06:46;;;;;;;49.10;16.70;;;;;;;-0.23;100.00;102066.25;5191068;56;1141346;-76
2022/01/23 06:11:53;;;;;;;39.83;15.83;;;;;;;-0.29;100.00;102061.95;5191260;57;1141310;-74
2022/01/23 06:16:59;;;;;;;36.77;13.00;;;;;;;-0.28;100.00;102075.38;5191116;57;1141381;-74
2022/01/23 06:22:25;;;;;;;43.23;15.43;;;;;;;-0.22;100.00;102087.48;5149015;56;1139192;-75
2022/01/23 06:27:48;;;;;;;53.83;20.68;;;;;;;-0.18;100.00;102090.05;5061818;58;1143268;-73
2022/01/23 06:32:54;;;;;;;47.87;17.57;;;;;;;-0.12;100.00;102084.78;5061102;58;1143247;-73
2022/01/23 06:38:00;;;;;;;35.20;15.07;;;;;;;-0.11;100.00;102085.20;5061082;58;1143273;-76
2022/01/23 06:43:05;;;;;;;34.67;13.97;;;;;;;-0.17;100.00;102087.02;5060759;58;1143228;-71
2022/01/23 06:48:13;;;;;;;31.87;12.67;;;;;;;-0.20;100.00;102100.03;5060813;58;1143340;-74
2022/01/23 06:53:20;;;;;;;30.37;12.20;;;;;;;-0.28;100.00;102101.37;5061592;58;1143576;-81
2022/01/23 06:58:26;;;;;;;31.97;12.93;;;;;;;-0.32;100.00;102098.84;5061120;57;1143282;-72
2022/01/23 07:03:32;;;;;;;28.50;11.73;;;;;;;-0.37;100.00;102089.33;5060909;58;1143478;-78
2022/01/23 07:08:44;;;;;;;29.83;12.47;;;;;;;-0.38;100.00;102094.53;5060921;58;1143325;-72
2022/01/23 07:14:07;;;;;;;37.43;15.30;;;;;;;-0.28;100.00;102110.48;5061850;57;1143279;-79
2022/01/23 07:19:26;;;;;;;32.10;14.00;;;;;;;-0.22;100.00;102106.98;5061135;57;1143203;-75
2022/01/23 07:24:34;;;;;;;43.00;19.80;;;;;;;-0.18;100.00;102122.55;5099481;56;1143818;-81
2022/01/23 07:29:43;;;;;;;52.43;23.87;;;;;;;-0.17;100.00;102122.12;5187814;57;1143198;-76
2022/01/23 07:34:49;;;;;;;50.45;22.22;;;;;;;-0.17;100.00;102150.72;5179271;57;1143209;-72
2022/01/23 07:39:58;;;;;;;37.60;16.50;;;;;;;-0.20;100.00;102158.53;5180387;57;1143316;-75
2022/01/23 07:45:17;;;;;;;34.30;15.63;;;;;;;-0.19;100.00;102170.23;5179186;56;1143265;-72
2022/01/23 07:50:25;;;;;;;35.83;15.60;;;;;;;-0.17;100.00;102165.88;5124434;56;1143218;-76
2022/01/23 07:55:35;;;;;;;131.40;68.93;;;;;;;-0.12;100.00;102173.63;5113377;56;1143401;-78
2022/01/23 08:00:55;;;;;;;50.93;29.03;;;;;;;-0.11;100.00;102186.63;5094664;56;1145388;-72
2022/01/23 08:06:02;;;;;;;41.87;20.13;;;;;;;-0.13;100.00;102194.00;5105767;58;1143258;-74
2022/01/23 08:11:19;;;;;;;66.97;21.47;;;;;;;-0.10;100.00;102207.86;5105902;57;1141209;-76
2022/01/23 08:16:25;;;;;;;37.27;14.07;;;;;;;-0.10;100.00;102209.16;5106046;57;1141252;-75
2022/01/23 08:21:31;;;;;;;50.80;18.20;;;;;;;-0.06;100.00;102217.38;5105798;57;1141167;-79
2022/01/23 08:26:37;;;;;;;102.65;54.58;;;;;;;-0.03;100.00;102214.76;5094248;58;1141214;-75
2022/01/23 08:31:45;;;;;;;124.73;66.50;;;;;;;0.03;100.00;102229.44;5080708;57;1143137;-74
2022/01/23 08:36:50;;;;;;;141.97;49.40;;;;;;;0.04;100.00;102224.67;5080887;57;1141384;-76
2022/01/23 08:41:56;;;;;;;133.17;60.53;;;;;;;0.04;100.00;102218.16;5080672;57;1141054;-79
2022/01/23 08:47:02;;;;;;;71.43;38.30;;;;;;;0.07;100.00;102207.74;5077628;57;1141100;-81
2022/01/23 08:52:08;;;;;;;51.30;21.37;;;;;;;0.11;100.00;102200.34;5082612;57;1139192;-74
2022/01/23 08:57:16;;;;;;;40.97;23.03;;;;;;;0.15;100.00;102190.36;5165725;56;1138920;-74
2022/01/23 09:02:23;;;;;;;50.50;28.87;;;;;;;0.16;100.00;102186.84;5165573;56;1139050;-80
2022/01/23 09:07:29;;;;;;;38.80;17.70;;;;;;;0.18;100.00;102181.64;5165650;56;1139035;-79
2022/01/23 09:12:58;;;;;;;38.83;17.67;;;;;;;0.20;100.00;102182.05;5165477;56;1139052;-75
2022/01/23 09:17:51;;;;;;;118.43;39.37;;;;;;;0.23;100.00;102185.08;5164424;56;1139207;-79
2022/01/23 09:22:57;;;;;;;54.40;23.40;;;;;;;0.28;100.00;102196.31;5165516;56;1138972;-77
2022/01/23 09:28:12;;;;;;;48.40;23.62;;;;;;;0.31;100.00;102195.83;5179951;56;1136885;-77
2022/01/23 09:33:14;;;;;;;201.47;95.23;;;;;;;0.39;100.00;102191.01;5169154;57;1141128;-76
2022/01/23 09:38:20;;;;;;;89.43;36.43;;;;;;;0.45;100.00;102197.48;5191349;57;1143114;-78
2022/01/23 09:43:28;;;;;;;128.93;63.27;;;;;;;0.48;100.00;102191.77;5155468;57;1141118;-76
2022/01/23 09:48:36;;;;;;;50.00;17.37;;;;;;;0.51;100.00;102190.45;5146734;57;1143223;-74
2022/01/23 09:53:43;;;;;;;32.77;13.50;;;;;;;0.57;100.00;102198.66;5164831;57;1141051;-77
2022/01/23 09:58:50;;;;;;;40.60;16.40;;;;;;;0.63;100.00;102196.84;5108873;57;1141212;-76
2022/01/23 10:03:55;;;;;;;146.50;58.10;;;;;;;0.68;100.00;102185.95;5148382;57;1141121;-76
2022/01/23 10:09:02;;;;;;;82.60;39.88;;;;;;;0.73;100.00;102194.16;5181527;56;1143728;-76
2022/01/23 10:14:07;;;;;;;51.53;28.37;;;;;;;0.78;100.00;102206.23;5142132;56;1141079;-74
2022/01/23 10:19:14;;;;;;;59.70;23.80;;;;;;;0.83;100.00;102205.76;5106202;58;1141118;-74
2022/01/23 10:24:20;;;;;;;86.43;36.53;;;;;;;0.92;100.00;102216.50;5106183;58;1141093;-77
2022/01/23 10:29:32;;;;;;;148.83;67.70;;;;;;;0.86;100.00;102215.28;5089185;57;1141335;-75
2022/01/23 10:34:56;;;;;;;47.83;21.67;;;;;;;0.89;100.00;102213.52;5081105;57;1143235;-76
2022/01/23 10:40:25;;;;;;;60.77;20.17;;;;;;;0.94;100.00;102209.54;5081160;57;1141152;-77
2022/01/23 10:51:20;;;;;;;419.57;93.43;;;;;;;1.04;100.00;102213.79;5081177;57;1143111;-74
2022/01/23 10:56:35;;;;;;;234.63;57.30;;;;;;;1.05;100.00;102221.59;5159649;56;1143242;-75
2022/01/23 11:01:50;;;;;;;761.30;196.43;;;;;;;1.08;100.00;102215.46;5165074;56;1143196;-78
2022/01/23 11:07:10;;;;;;;631.33;153.90;;;;;;;1.11;100.00;102215.43;5162651;56;1143242;-74
2022/01/23 11:12:27;;;;;;;298.90;84.57;;;;;;;1.17;100.00;102223.63;5164215;56;1143424;-73
2022/01/23 11:17:26;;;;;;;197.17;63.17;;;;;;;1.20;100.00;102226.20;5139175;57;1141624;-76
2022/01/23 11:22:39;;;;;;;72.47;30.37;;;;;;;1.26;100.00;102245.66;5113445;57;1141360;-75
2022/01/23 11:27:44;;;;;;;34.37;15.83;;;;;;;1.36;100.00;102243.39;5082740;57;1139007;-78
2022/01/23 11:32:50;;;;;;;46.33;19.33;;;;;;;1.37;100.00;102245.12;5170744;57;1138939;-73
2022/01/23 11:37:57;;;;;;;41.60;16.30;;;;;;;1.37;100.00;102241.20;5132807;57;1139039;-74
2022/01/23 11:54:03;;;;;;;55.08;22.05;;;;;;;1.42;100.00;102236.78;5087529;57;1141478;-77
2022/01/23 11:59:28;;;;;;;83.53;33.23;;;;;;;1.44;100.00;102235.02;5134735;56;1141136;-73
2022/01/23 12:10:04;;;;;;;57.73;20.83;;;;;;;1.53;100.00;102237.50;5307010;55;46614;-75
2022/01/23 12:20:55;;;;;;;436.17;128.97;;;;;;;1.49;100.00;102245.41;5013237;57;1143280;-75
2022/01/23 12:26:03;;;;;;;93.20;33.93;;;;;;;1.48;100.00;102251.05;5032166;57;1145345;-73
2022/01/23 12:31:19;;;;;;;48.77;20.73;;;;;;;1.50;100.00;102251.04;4974369;58;1141066;-77
2022/01/23 12:36:31;;;;;;;48.60;19.43;;;;;;;1.57;100.00;102247.45;4962487;58;1141192;-73
2022/01/23 12:41:40;;;;;;;109.20;38.47;;;;;;;1.58;100.00;102254.40;5037599;58;1141395;-76
2022/01/23 12:46:58;;;;;;;101.80;50.10;;;;;;;1.57;100.00;102257.45;5045184;58;1143415;-74
2022/01/23 12:52:13;;;;;;;53.63;20.50;;;;;;;1.58;100.00;102263.52;5053785;57;1143155;-78
2022/01/23 12:57:42;;;;;;;45.37;18.63;;;;;;;1.62;100.00;102256.09;5136030;56;1139277;-77
2022/01/23 13:02:46;;;;;;;40.53;18.63;;;;;;;1.66;100.00;102252.58;5055481;57;1139039;-74
2022/01/23 13:13:37;;;;;;;71.67;36.97;;;;;;;1.64;100.00;102273.45;5163807;56;1139021;-78
2022/01/23 13:18:46;;;;;;;93.73;44.07;;;;;;;1.66;100.00;102271.69;5142140;56;1139033;-79
2022/01/23 13:34:56;;;;;;;136.20;51.83;;;;;;;1.69;100.00;102287.27;5198424;56;1143242;-77
2022/01/23 13:40:10;;;;;;;64.53;27.10;;;;;;;1.71;100.00;102289.42;5225773;56;1143223;-75
2022/01/23 14:01:52;;;;;;;87.37;37.30;;;;;;;1.93;100.00;102295.68;5227025;55;1141255;-75
2022/01/23 14:06:54;;;;;;;82.63;34.10;;;;;;;1.96;100.00;102296.95;5227483;55;1141271;-75
2022/01/23 14:12:11;;;;;;;89.93;36.17;;;;;;;2.00;100.00;102292.95;5227648;56;1141006;-75
2022/01/23 14:17:17;;;;;;;91.53;32.57;;;;;;;1.98;100.00;102294.75;5226882;55;1141090;-72
2022/01/23 14:22:28;;;;;;;82.80;33.07;;;;;;;1.94;100.00;102289.58;5227521;56;1141214;-75
2022/01/23 14:27:34;;;;;;;127.50;46.43;;;;;;;1.97;100.00;102296.07;5226563;56;1139086;-74
2022/01/23 14:32:46;;;;;;;74.20;27.93;;;;;;;1.93;100.00;102296.98;5205795;56;1141108;-76
2022/01/23 14:37:52;;;;;;;201.47;82.70;;;;;;;1.93;100.00;102291.77;5141643;56;1139226;-79
2022/01/23 14:43:08;;;;;;;107.20;51.87;;;;;;;1.91;100.00;102294.39;5197524;56;1141128;-74
2022/01/23 14:48:16;;;;;;;192.57;72.13;;;;;;;1.90;100.00;102290.50;5226771;55;1141047;-75
2022/01/23 14:53:25;;;;;;;301.23;111.80;;;;;;;1.80;100.00;102297.59;5227433;55;1141282;-75
2022/01/23 14:58:33;;;;;;;143.73;55.80;;;;;;;1.76;100.00;102303.28;5227388;56;1143192;-77
2022/01/23 15:03:42;;;;;;;342.80;93.13;;;;;;;1.79;100.00;102307.60;5227321;56;1141252;-76
2022/01/23 15:08:49;;;;;;;405.50;98.60;;;;;;;1.82;100.00;102298.44;5226731;56;1141573;-77
2022/01/23 15:13:55;;;;;;;473.33;122.20;;;;;;;1.83;100.00;102302.78;5227108;56;1141115;-76
2022/01/23 15:19:01;;;;;;;497.20;127.00;;;;;;;1.78;100.00;102308.92;5227498;56;1142638;-76
2022/01/23 15:24:07;;;;;;;394.43;95.47;;;;;;;1.74;100.00;102312.00;5219630;56;1143478;-76
2022/01/23 15:29:13;;;;;;;217.40;66.83;;;;;;;1.71;100.00;102307.69;5216844;56;1139062;-72
2022/01/23 15:34:18;;;;;;;192.13;58.87;;;;;;;1.76;100.00;102311.55;5175497;56;1139095;-75
2022/01/23 15:39:25;;;;;;;172.10;60.27;;;;;;;1.80;100.00;102317.16;5130038;56;1143596;-76
2022/01/23 15:44:30;;;;;;;209.70;74.97;;;;;;;1.80;100.00;102319.77;5129936;56;1143492;-74
2022/01/23 15:49:36;;;;;;;228.90;81.83;;;;;;;1.83;100.00;102322.34;5129890;57;1143293;-76
2022/01/23 15:54:42;;;;;;;153.23;53.87;;;;;;;1.76;100.00;102320.23;5181781;55;1143140;-75
2022/01/23 15:59:49;;;;;;;148.07;53.80;;;;;;;1.75;100.00;102325.47;5307872;55;1143160;-75
2022/01/23 16:04:57;;;;;;;150.60;44.47;;;;;;;1.72;100.00;102330.28;5232010;55;1143459;-72
2022/01/23 16:10:04;;;;;;;190.33;48.00;;;;;;;1.70;100.00;102335.09;5214948;56;1143216;-75
2022/01/23 16:15:15;;;;;;;175.77;53.10;;;;;;;1.72;100.00;102343.32;5215302;56;1143165;-75
2022/01/23 16:20:21;;;;;;;133.37;46.67;;;;;;;1.68;100.00;102339.02;5187991;56;1143423;-74
2022/01/23 16:25:27;;;;;;;125.20;43.57;;;;;;;1.65;100.00;102357.33;5141324;56;1143321;-78
2022/01/23 16:30:50;;;;;;;116.07;42.50;;;;;;;1.74;100.00;102360.26;5198780;56;1143186;-75
2022/01/23 16:35:57;;;;;;;218.65;68.60;;;;;;;1.86;100.00;102354.02;5226662;56;1143542;-74
2022/01/23 16:41:03;;;;;;;178.90;48.27;;;;;;;1.87;100.00;102354.45;5227441;55;1143214;-72
2022/01/23 16:46:09;;;;;;;223.03;86.50;;;;;;;1.80;100.00;102351.51;5215171;56;1143262;-75
2022/01/23 16:51:15;;;;;;;184.83;68.93;;;;;;;1.79;100.00;102349.34;5214075;55;1143538;-74
2022/01/23 16:56:21;;;;;;;149.93;53.13;;;;;;;1.78;100.00;102346.75;5214978;56;1143194;-74
2022/01/23 17:01:27;;;;;;;215.80;75.03;;;;;;;1.75;100.00;102338.52;5216887;56;1143189;-74
2022/01/23 17:06:38;;;;;;;254.23;76.07;;;;;;;1.82;100.00;102341.48;5217403;55;1143138;-75
2022/01/23 17:11:42;;;;;;;253.67;75.63;;;;;;;1.83;100.00;102341.05;5214794;55;1143656;-75
2022/01/23 17:16:48;;;;;;;234.60;85.70;;;;;;;1.78;100.00;102347.61;5208176;56;1143146;-73
2022/01/23 17:21:55;;;;;;;508.17;218.33;;;;;;;1.70;100.00;102328.56;5219932;56;1143213;-72
2022/01/23 17:27:01;;;;;;;366.03;126.93;;;;;;;1.83;100.00;102352.78;5227910;56;1145324;-72
2022/01/23 17:32:09;;;;;;;316.10;113.97;;;;;;;1.86;100.00;102348.36;5227851;56;1145520;-74
2022/01/23 17:37:15;;;;;;;454.20;141.30;;;;;;;1.89;100.00;102353.55;5227635;56;1145123;-73
2022/01/23 17:42:21;;;;;;;405.60;145.80;;;;;;;1.87;100.00;102354.45;5227733;56;1145407;-76
2022/01/23 17:52:35;;;;;;;169.03;52.07;;;;;;;1.91;100.00;102354.40;5221552;56;1145610;-74
2022/01/23 17:57:41;;;;;;;308.85;90.30;;;;;;;1.88;100.00;102349.66;5224683;56;1143410;-74
2022/01/23 18:02:49;;;;;;;248.13;73.63;;;;;;;1.79;100.00;102355.00;5227696;56;1143129;-75
2022/01/23 18:07:56;;;;;;;164.27;55.83;;;;;;;1.77;100.00;102358.92;5227565;55;1143210;-75
2022/01/23 18:13:02;;;;;;;163.07;60.90;;;;;;;1.77;100.00;102365.45;5226738;56;1143175;-74
2022/01/23 18:18:10;;;;;;;190.57;67.95;;;;;;;1.77;100.00;102361.53;5227284;56;1143226;-75
2022/01/23 18:23:16;;;;;;;202.13;60.30;;;;;;;1.78;100.00;102391.09;5227302;56;1141263;-75
2022/01/23 18:28:26;;;;;;;235.73;75.93;;;;;;;1.75;100.00;102390.23;5168500;56;1141057;-73
2022/01/23 18:33:31;;;;;;;181.57;60.27;;;;;;;1.79;100.00;102390.21;5140513;57;1141114;-74
2022/01/23 18:38:36;;;;;;;186.90;55.50;;;;;;;1.77;100.00;102391.53;5141402;57;1141093;-74
2022/01/23 18:43:42;;;;;;;160.03;55.20;;;;;;;1.73;100.00;102388.53;5141398;57;1141361;-73
2022/01/23 18:48:48;;;;;;;157.63;48.37;;;;;;;1.68;100.00;102402.91;5141362;57;1141105;-75
2022/01/23 18:54:08;;;;;;;164.37;52.80;;;;;;;1.65;100.00;102410.80;5141263;57;1141142;-75
2022/01/23 18:59:09;;;;;;;113.23;44.37;;;;;;;1.67;100.00;102403.82;5136043;57;1141361;-75
2022/01/23 19:04:09;;;;;;;661.93;210.37;;;;;;;1.70;100.00;102401.16;5140283;57;1141090;-74
2022/01/23 19:09:22;;;;;;;490.50;146.73;;;;;;;1.66;100.00;102402.09;5158591;56;1143193;-73
2022/01/23 19:14:26;;;;;;;752.40;244.80;;;;;;;1.62;100.00;102412.13;5223781;56;1143217;-75
2022/01/23 19:19:32;;;;;;;448.27;137.37;;;;;;;1.62;100.00;102411.27;5210227;56;1143276;-74
2022/01/23 19:24:39;;;;;;;182.80;62.27;;;;;;;1.61;100.00;102414.74;5153463;56;1143199;-75
2022/01/23 19:29:45;;;;;;;177.40;60.93;;;;;;;1.57;100.00;102420.42;5146874;57;1141140;-74
2022/01/23 19:34:51;;;;;;;227.83;74.53;;;;;;;1.65;100.00;102423.84;5059805;58;1141199;-74
2022/01/23 19:39:57;;;;;;;302.00;85.33;;;;;;;1.70;100.00;102426.37;5207884;56;1141362;-74
2022/01/23 19:45:04;;;;;;;274.70;81.93;;;;;;;1.63;100.00;102438.62;5209090;56;1139119;-73
2022/01/23 19:50:11;;;;;;;197.93;60.37;;;;;;;1.52;100.00;102441.79;5136949;56;1139387;-75
2022/01/23 19:55:17;;;;;;;285.50;92.73;;;;;;;1.49;100.00;102448.33;5161903;56;1143057;-73
2022/01/23 20:00:26;;;;;;;447.33;152.23;;;;;;;1.52;100.00;102453.96;5110738;57;1143238;-73
2022/01/23 20:05:31;;;;;;;176.63;58.10;;;;;;;1.58;100.00;102460.41;5138639;56;1145362;-74
2022/01/23 20:15:43;;;;;;;367.60;117.03;;;;;;;1.49;100.00;102452.24;5143295;57;1143123;-74
2022/01/23 20:20:53;;;;;;;241.50;84.53;;;;;;;1.51;100.00;102453.53;5127727;56;1145592;-75
2022/01/23 20:26:02;;;;;;;196.93;66.83;;;;;;;1.53;100.00;102453.92;5063476;56;1143467;-75
2022/01/23 20:31:08;;;;;;;198.60;67.60;;;;;;;1.54;100.00;102446.52;5147263;56;1143170;-74
2022/01/23 20:36:14;;;;;;;235.17;101.73;;;;;;;1.62;100.00;102456.89;5214038;56;1143207;-82
2022/01/23 20:46:27;;;;;;;200.07;78.27;;;;;;;1.59;100.00;102468.22;5150907;56;1143251;-78
2022/01/23 20:51:47;;;;;;;97.63;35.83;;;;;;;1.57;100.00;102469.11;5141342;56;1143195;-76
2022/01/23 20:56:41;;;;;;;96.83;34.30;;;;;;;1.57;100.00;102469.11;5136979;56;1141183;-79
2022/01/23 21:01:47;;;;;;;140.17;44.13;;;;;;;1.59;100.00;102473.44;5130821;57;1141225;-78
2022/01/23 21:06:53;;;;;;;120.40;42.73;;;;;;;1.60;100.00;102480.82;5130388;56;1143294;-73
2022/01/23 21:11:59;;;;;;;154.73;60.00;;;;;;;1.64;100.00;102480.78;5130574;57;1143473;-71
2022/01/23 21:22:23;;;;;;;101.10;39.80;;;;;;;1.73;100.00;102492.42;5131861;57;1143160;-74
2022/01/23 21:33:03;;;;;;;132.03;50.90;;;;;;;1.77;100.00;102485.44;5131231;56;1143391;-72
2022/01/23 21:43:14;;;;;;;107.58;35.68;;;;;;;1.60;100.00;102489.51;5123675;57;1143165;-75
2022/01/23 21:48:20;;;;;;;115.40;38.28;;;;;;;1.54;100.00;102496.50;5141212;57;1143095;-73
2022/01/23 21:53:26;;;;;;;96.63;37.57;;;;;;;1.46;100.00;102501.80;5141405;57;1143302;-76
2022/01/23 21:58:32;;;;;;;123.67;43.87;;;;;;;1.41;100.00;102501.83;5090581;57;1141081;-72
2022/01/23 22:03:38;;;;;;;121.37;46.60;;;;;;;1.41;100.00;102494.02;5112618;57;1143228;-70
2022/01/23 22:08:46;;;;;;;113.17;47.67;;;;;;;1.46;100.00;102499.63;5153158;57;1143177;-75
2022/01/23 22:19:14;;;;;;;122.03;46.47;;;;;;;1.47;100.00;102494.84;5141002;57;1140899;-74
2022/01/23 22:29:30;;;;;;;107.73;42.70;;;;;;;1.52;100.00;102493.08;5098458;57;1141119;-76
2022/01/23 22:34:35;;;;;;;100.35;39.05;;;;;;;1.53;100.00;102496.95;5148357;57;1141114;-76
2022/01/23 22:39:41;;;;;;;123.57;45.80;;;;;;;1.55;100.00;102495.19;5140221;57;1141120;-80
2022/01/23 22:45:08;;;;;;;98.07;39.37;;;;;;;1.54;100.00;102481.73;5140201;57;1141211;-72
2022/01/23 22:50:07;;;;;;;102.83;40.37;;;;;;;1.60;100.00;102472.55;5140385;57;1139445;-73
2022/01/23 22:55:14;;;;;;;96.77;38.00;;;;;;;1.55;100.00;102463.03;5151392;57;1141156;-72
2022/01/23 23:00:46;;;;;;;79.40;32.33;;;;;;;1.57;100.00;102472.58;5151375;57;1139483;-72
2022/01/23 23:05:53;;;;;;;84.27;34.77;;;;;;;1.53;100.00;102470.03;5167428;57;21150;-75
2022/01/23 23:11:00;;;;;;;81.20;33.07;;;;;;;1.48;100.00;102470.51;5152912;56;1136922;-78
2022/01/23 23:16:09;;;;;;;83.33;32.40;;;;;;;1.47;100.00;102468.77;5239411;56;1141090;-76
2022/01/23 23:21:17;;;;;;;89.70;34.63;;;;;;;1.44;100.00;102474.88;5241606;56;1141332;-78
2022/01/23 23:26:23;;;;;;;101.17;40.03;;;;;;;1.45;100.00;102481.82;5164784;57;1141106;-71
2022/01/23 23:31:30;;;;;;;89.57;34.57;;;;;;;1.43;100.00;102476.19;5164699;56;1143304;-73
2022/01/23 23:36:36;;;;;;;88.57;34.83;;;;;;;1.42;100.00;102490.96;5164359;57;1141035;-78
2022/01/23 23:41:45;;;;;;;81.37;32.30;;;;;;;1.49;100.00;102501.78;5152875;57;1141301;-76
2022/01/23 23:46:51;;;;;;;86.17;36.00;;;;;;;1.60;100.00;102504.29;5152674;57;1141228;-73
2022/01/23 23:51:57;;;;;;;89.55;38.13;;;;;;;1.65;100.00;102498.17;5152190;57;1141218;-79
2022/01/23 23:57:04;;;;;;;129.77;48.80;;;;;;;1.71;100.00;102503.74;5151910;57;1141217;-77
